Delta Virtual Airport Information Service

Guam Antonio B. Won Pat International Airport

ICAO: PGUM Country: Guam
Latitude: 13.4839 Longitude: 144.797
Latest Arrival : DAC6555 (KSFO-PGUM) Latest Departure : DAC6555 (PGUM-WIII)


WX CaptureLIVE
Data provided by noaa.gov | Fetched at 12:05:59

METAR : PGUM 241654Z 04005KT 10SM CLR 25/23 A2982 RMK AO2 SLP091 T02500233

TAF : PGUM 241133Z 2412/2518 07008KT P6SM VCSH SCT020 SCT050 BKN120 TEMPO 2412/2416 3SM SHRA SCT015 BKN025 OVC050


Runway Data for PGUM
Data provided by openaviationdata.com

Runway ID Mag Var Hdg Length Elevation Surface ILS Freq ILS Id ILS Slope
06L 2 62° 10022 ft 298 ft Asphalt 110.3 IGUM 3
06R 2 62° 8009 ft 298 ft Asphalt -- -- --
24L 2 242° 8009 ft 298 ft Asphalt -- -- --
24R 2 242° 10022 ft 298 ft Asphalt -- -- --

Guam Antonio B. Won Pat International Airport, Guam
Use only for reference purposes



Not for navigational purposes.